Portada
METAR-TAF:

METAR-TAF

Aeroports :

Belmar-Farmingdale, Nova Jersey, Estats Units d'Amèrica

latitud: 40-11N, longitud: 074-08W, altitud: 48 m

Observació

L'informe es va fer fa 19 minuts, a les 19:56 UTC
Vent 12 kt del Nord/Nord-Oest
Temperatura 1°C
Humitat 27%
Pressió 1028 hPa
Visibilitat: 16.1 km
Cel clar

METAR: KBLM 131956Z AUTO 33012KT 10SM CLR 01/M16 A3035 RMK AO2 SLP279 T00111156 FZRANO

Hora: 15:15 (20:15 UTC)


TAF: manca

Observacions i pronòstics meteorològics de més de 4000 aeroports (METAR i TAF).

Les estacions disponibles són els punts grocs i vermells al mapa.

Posi el ratolí al punt desitjat per veure el nom de l'estació.

Feu clic per veure les observacions i els pronòstics meteorològics.

Per canviar el mapa: feu clic els botons verds amb una creu de color negre per apropar; al botó verd amb un guió per allunyar la imatge; o en les fletxes verdes per a mapes adjacents.


METAR-TAF: